Time;durP1;ratioP1;P1;durP2;ratioP2;P2;SDS_P1;SDS_P2;PMS_P1;PMS_P2;Temp;Humidity;BMP_temperature;BMP_pressure;BME280_temperature;BME280_humidity;BME280_pressure;Samples;Min_cycle;Max_cycle;Signal;HPM_P1;HPM_P2
2022/08/09 00:00:44;;;;;;;3.08;1.80;;;;;;;15.78;58.44;101204.59;5035045;28;20014;-76
2022/08/09 00:03:09;;;;;;;4.47;2.63;;;;;;;15.76;58.51;101207.97;5034704;28;20466;-77
2022/08/09 00:05:35;;;;;;;3.28;2.10;;;;;;;15.75;58.58;101211.38;5033311;28;20025;-77
2022/08/09 00:08:00;;;;;;;2.38;2.17;;;;;;;15.73;58.80;101211.88;5034746;28;20075;-76
2022/08/09 00:10:25;;;;;;;6.72;2.30;;;;;;;15.71;58.95;101211.63;5033726;28;20061;-75
2022/08/09 00:12:51;;;;;;;7.13;2.83;;;;;;;15.69;59.13;101206.34;5034741;28;20075;-78
2022/08/09 00:15:16;;;;;;;5.57;2.08;;;;;;;15.67;59.06;101214.69;5034355;28;20029;-77
2022/08/09 00:17:42;;;;;;;4.35;2.22;;;;;;;15.66;59.38;101212.34;5016483;28;20022;-77
2022/08/09 00:20:08;;;;;;;3.15;2.55;;;;;;;15.64;59.25;101207.06;5016532;28;20025;-77
2022/08/09 00:22:34;;;;;;;5.93;2.50;;;;;;;15.61;59.67;101207.31;5016493;28;20017;-78
2022/08/09 00:24:59;;;;;;;3.47;2.40;;;;;;;15.61;59.63;101210.94;5034284;28;20537;-77
2022/08/09 00:27:25;;;;;;;5.63;2.10;;;;;;;15.58;59.85;101208.25;5033084;28;20021;-77
2022/08/09 00:29:51;;;;;;;4.55;2.72;;;;;;;15.55;59.90;101209.28;5034492;28;20040;-78
2022/08/09 00:32:16;;;;;;;3.47;2.40;;;;;;;15.52;59.97;101204.53;5032987;28;20025;-76
2022/08/09 00:34:42;;;;;;;2.60;2.30;;;;;;;15.49;60.45;101208.41;5034220;28;20083;-78
2022/08/09 00:37:07;;;;;;;3.70;2.35;;;;;;;15.46;60.38;101216.00;5034226;28;20025;-77
2022/08/09 00:39:33;;;;;;;4.10;2.45;;;;;;;15.43;60.68;101208.34;5034583;28;20017;-77
2022/08/09 00:41:58;;;;;;;4.13;2.75;;;;;;;15.40;60.83;101211.47;5034217;28;20021;-77
2022/08/09 00:44:24;;;;;;;3.58;2.03;;;;;;;15.35;61.05;101207.22;5034312;28;20485;-78
2022/08/09 00:46:49;;;;;;;4.85;2.58;;;;;;;15.30;61.06;101213.69;5032819;28;20032;-77
2022/08/09 00:49:14;;;;;;;3.42;2.47;;;;;;;15.28;61.35;101219.16;5032326;28;20085;-77
2022/08/09 00:51:40;;;;;;;4.88;2.40;;;;;;;15.23;61.57;101212.03;5034019;28;20078;-77
2022/08/09 00:54:05;;;;;;;3.22;2.25;;;;;;;15.20;61.76;101221.69;5034075;28;20017;-77
2022/08/09 00:56:31;;;;;;;4.22;2.70;;;;;;;15.16;62.02;101209.59;5033874;28;20116;-77
2022/08/09 00:58:57;;;;;;;4.60;2.85;;;;;;;15.14;61.97;101223.69;5032580;28;20021;-78
2022/08/09 01:01:27;;;;;;;5.38;3.35;;;;;;;15.10;62.37;101220.22;5033707;28;20531;-77
2022/08/09 01:04:15;;;;;;;5.00;2.90;;;;;;;15.06;62.67;101225.41;5032617;28;20029;-76
2022/08/09 01:07:03;;;;;;;4.15;2.80;;;;;;;15.02;62.83;101224.81;5032869;28;20343;-77
2022/08/09 01:09:39;;;;;;;4.13;2.42;;;;;;;14.97;62.90;101225.53;5032680;28;20021;-77
2022/08/09 01:12:17;;;;;;;3.30;2.60;;;;;;;14.96;63.17;101223.16;5032314;28;20033;-78
2022/08/09 01:14:48;;;;;;;3.35;2.58;;;;;;;14.93;63.52;101229.91;5015662;28;20029;-79
2022/08/09 01:17:36;;;;;;;4.47;2.55;;;;;;;14.86;63.63;101213.06;5016035;28;20029;-78
2022/08/09 01:20:05;;;;;;;5.10;2.60;;;;;;;14.84;63.79;101213.56;5031694;28;20486;-78
2022/08/09 01:22:34;;;;;;;4.50;2.53;;;;;;;14.87;63.98;101220.44;5032157;28;20470;-78
2022/08/09 01:25:15;;;;;;;3.33;2.80;;;;;;;14.84;64.11;101217.25;5033552;28;20033;-79
2022/08/09 01:27:41;;;;;;;4.45;2.72;;;;;;;14.82;64.17;101219.81;5033496;28;20029;-78
2022/08/09 01:30:08;;;;;;;4.95;2.72;;;;;;;14.81;64.57;101221.13;5031879;28;20108;-78
2022/08/09 01:32:37;;;;;;;4.78;2.90;;;;;;;14.78;64.71;101216.34;5012834;28;20021;-78
2022/08/09 01:35:26;;;;;;;5.30;2.63;;;;;;;14.81;64.71;101226.09;5030926;28;20096;-77
2022/08/09 01:37:56;;;;;;;4.28;2.75;;;;;;;14.81;64.79;101220.34;5015601;28;20025;-77
2022/08/09 01:40:23;;;;;;;5.05;3.00;;;;;;;14.80;64.78;101228.19;5032356;28;20057;-77
2022/08/09 01:42:49;;;;;;;3.88;2.83;;;;;;;14.84;64.85;101228.75;5033428;28;20025;-77
2022/08/09 01:45:16;;;;;;;4.93;3.47;;;;;;;14.83;64.79;101224.28;5032076;28;20056;-78
2022/08/09 01:47:41;;;;;;;5.00;2.83;;;;;;;14.91;64.76;101227.56;5015599;28;20033;-78
2022/08/09 01:50:08;;;;;;;2.45;2.22;;;;;;;14.91;64.92;101230.44;5031875;28;20115;-78
2022/08/09 01:52:34;;;;;;;2.80;2.30;;;;;;;14.96;64.88;101232.59;5015482;28;20121;-78
2022/08/09 01:55:01;;;;;;;3.10;2.80;;;;;;;14.99;64.75;101233.66;5032298;28;20114;-78
2022/08/09 01:57:30;;;;;;;6.63;2.72;;;;;;;15.00;64.80;101238.94;5032095;28;20029;-77
2022/08/09 01:59:57;;;;;;;5.57;3.58;;;;;;;15.00;64.57;101238.13;5033502;28;20381;-78
2022/08/09 02:02:26;;;;;;;5.13;3.38;;;;;;;15.02;64.80;101239.22;5031816;28;20033;-78
2022/08/09 02:04:53;;;;;;;3.78;3.00;;;;;;;15.02;64.41;101239.22;5033099;28;20033;-77
2022/08/09 02:07:19;;;;;;;5.47;3.17;;;;;;;15.02;64.64;101247.06;5031989;28;20048;-78
2022/08/09 02:09:57;;;;;;;4.72;3.22;;;;;;;14.98;64.72;101241.50;5032136;28;20029;-77
2022/08/09 02:12:24;;;;;;;7.15;3.15;;;;;;;14.98;64.73;101241.50;5015315;28;20014;-78
2022/08/09 02:14:51;;;;;;;3.78;3.15;;;;;;;14.95;64.81;101236.75;5034702;28;20172;-77
2022/08/09 02:17:23;;;;;;;3.13;2.70;;;;;;;14.94;64.66;101249.56;5019039;28;20021;-76
2022/08/09 02:19:49;;;;;;;5.40;3.13;;;;;;;14.91;64.56;101246.91;5019088;28;20533;-77
2022/08/09 02:22:25;;;;;;;4.32;2.78;;;;;;;14.88;64.67;101245.81;5035618;28;20104;-78
2022/08/09 02:24:53;;;;;;;4.75;2.92;;;;;;;14.85;64.54;101238.19;5035336;28;20037;-77
2022/08/09 02:27:20;;;;;;;5.68;3.25;;;;;;;14.83;64.60;101235.00;5035560;28;20148;-77
2022/08/09 02:29:49;;;;;;;6.78;3.38;;;;;;;14.74;64.68;101221.53;5035446;28;20041;-77
2022/08/09 02:32:18;;;;;;;3.88;2.83;;;;;;;14.78;64.80;101238.59;5018705;28;20029;-77
2022/08/09 02:34:47;;;;;;;3.70;3.13;;;;;;;14.76;64.84;101236.22;5018648;28;20033;-78
2022/08/09 02:37:14;;;;;;;6.13;3.30;;;;;;;14.75;64.98;101240.38;5035473;28;20032;-78
2022/08/09 02:39:49;;;;;;;3.05;2.67;;;;;;;14.76;65.34;101232.56;5035181;28;20108;-77
2022/08/09 02:42:21;;;;;;;6.03;2.97;;;;;;;14.75;65.68;101226.00;5036501;28;20024;-77
2022/08/09 02:45:04;;;;;;;3.75;2.70;;;;;;;14.73;66.07;101222.03;5035204;28;20113;-77
2022/08/09 02:47:31;;;;;;;4.00;2.95;;;;;;;14.74;66.13;101232.25;5018454;28;20477;-79
2022/08/09 02:50:06;;;;;;;3.90;3.58;;;;;;;14.72;66.16;101226.22;5018234;28;20509;-77
2022/08/09 02:52:53;;;;;;;9.05;3.33;;;;;;;14.72;66.69;101235.66;5034847;28;20087;-77
2022/08/09 02:55:19;;;;;;;5.10;3.22;;;;;;;14.70;66.45;101228.78;5035380;28;20033;-78
2022/08/09 02:57:46;;;;;;;3.60;2.58;;;;;;;14.69;66.45;101235.81;5034917;28;20105;-76
2022/08/09 03:00:12;;;;;;;4.97;3.72;;;;;;;14.67;66.62;101229.78;5034868;28;20037;-78
2022/08/09 03:02:38;;;;;;;3.08;2.75;;;;;;;14.68;66.86;101237.13;5034610;28;20045;-77
2022/08/09 03:05:07;;;;;;;4.55;3.20;;;;;;;14.66;67.17;101223.25;5034676;28;20034;-78
2022/08/09 03:07:33;;;;;;;3.10;2.78;;;;;;;14.68;67.19;101222.72;5018067;28;20381;-76
2022/08/09 03:10:00;;;;;;;3.72;3.00;;;;;;;14.67;67.28;101230.59;5034560;28;20033;-77
2022/08/09 03:12:25;;;;;;;6.40;3.22;;;;;;;14.69;67.46;101230.06;5018288;28;20572;-75
2022/08/09 03:14:51;;;;;;;4.97;3.60;;;;;;;14.73;67.74;101230.66;5017961;28;20084;-76
2022/08/09 03:17:17;;;;;;;8.05;3.17;;;;;;;14.75;68.12;101239.59;5034478;28;20021;-78
2022/08/09 03:19:42;;;;;;;4.25;2.80;;;;;;;14.74;68.23;101235.13;5035383;28;20047;-76
2022/08/09 03:22:09;;;;;;;5.82;3.08;;;;;;;14.73;68.07;101233.53;5035420;28;20028;-76
2022/08/09 03:24:34;;;;;;;4.45;3.20;;;;;;;14.70;68.30;101243.19;5034220;28;20104;-77
2022/08/09 03:27:03;;;;;;;3.90;3.15;;;;;;;14.69;68.18;101244.47;5033056;28;20125;-76
2022/08/09 03:29:28;;;;;;;3.80;3.40;;;;;;;14.66;68.19;101243.38;5035455;28;20455;-77
2022/08/09 03:31:54;;;;;;;3.78;3.15;;;;;;;14.68;68.74;101234.25;5033812;28;20118;-76
2022/08/09 03:34:19;;;;;;;4.43;3.25;;;;;;;14.69;68.76;101235.81;5035366;28;20025;-77
2022/08/09 03:36:45;;;;;;;5.30;3.15;;;;;;;14.68;69.02;101231.34;5035450;28;20033;-76
2022/08/09 03:39:10;;;;;;;3.53;2.95;;;;;;;14.70;69.00;101240.28;5035194;28;20026;-77
2022/08/09 03:41:36;;;;;;;7.50;3.58;;;;;;;14.68;69.16;101232.16;5034982;28;20030;-77
2022/08/09 03:44:01;;;;;;;6.10;3.28;;;;;;;14.68;69.05;101237.13;5035633;28;20430;-76
2022/08/09 03:46:27;;;;;;;5.78;3.58;;;;;;;14.65;68.95;101224.53;5035519;28;20037;-76
2022/08/09 03:48:56;;;;;;;7.65;3.35;;;;;;;14.66;68.68;101223.25;5035465;28;20041;-77
2022/08/09 03:51:23;;;;;;;6.38;3.50;;;;;;;14.68;68.64;101228.47;5034248;28;20033;-76
2022/08/09 03:53:49;;;;;;;5.38;3.30;;;;;;;14.66;68.35;101217.50;5034237;28;20025;-76
2022/08/09 03:56:15;;;;;;;4.22;3.08;;;;;;;14.76;68.40;101239.09;5034098;28;20531;-75
2022/08/09 03:58:40;;;;;;;3.70;2.88;;;;;;;14.86;68.20;101236.91;5035305;28;20034;-77
2022/08/09 04:01:05;;;;;;;4.90;3.65;;;;;;;14.93;67.87;101235.66;5033842;28;20026;-76
2022/08/09 04:03:31;;;;;;;7.68;3.45;;;;;;;15.02;67.73;101242.09;5034124;28;20047;-76
2022/08/09 04:05:57;;;;;;;8.27;4.10;;;;;;;15.12;67.56;101240.66;5017483;28;20037;-76
2022/08/09 04:08:22;;;;;;;5.20;3.25;;;;;;;15.22;67.44;101238.44;5033936;28;20029;-77
2022/08/09 04:10:48;;;;;;;8.93;3.25;;;;;;;15.31;67.13;101238.31;5032780;28;20037;-75
2022/08/09 04:13:13;;;;;;;6.43;3.90;;;;;;;15.42;66.83;101237.66;5016806;28;20132;-77
2022/08/09 04:15:39;;;;;;;6.97;3.20;;;;;;;15.55;66.52;101238.91;5033210;28;20022;-77
2022/08/09 04:18:05;;;;;;;7.60;3.47;;;;;;;15.67;66.33;101234.06;5034909;28;20087;-77
2022/08/09 04:20:30;;;;;;;4.63;3.33;;;;;;;15.80;65.99;101240.28;5016755;28;20103;-75
2022/08/09 04:22:56;;;;;;;7.18;3.38;;;;;;;15.93;65.90;101246.44;5035460;28;20111;-76
2022/08/09 04:25:21;;;;;;;7.07;3.42;;;;;;;16.02;65.49;101240.50;5017996;28;20137;-77
2022/08/09 04:27:47;;;;;;;5.78;3.05;;;;;;;16.13;65.54;101251.34;5017060;28;20040;-76
2022/08/09 04:30:14;;;;;;;8.15;3.55;;;;;;;16.23;65.06;101251.97;5016951;28;20520;-77
2022/08/09 04:32:40;;;;;;;7.03;4.03;;;;;;;16.36;64.84;101250.25;5034277;28;20044;-76
2022/08/09 04:35:07;;;;;;;6.57;3.60;;;;;;;16.51;64.19;101253.00;5034660;28;20169;-77
2022/08/09 04:37:32;;;;;;;7.88;3.47;;;;;;;16.63;63.70;101254.72;5034319;28;20056;-78
2022/08/09 04:39:57;;;;;;;7.93;3.90;;;;;;;16.74;63.39;101263.50;5033180;28;20026;-78
2022/08/09 04:42:28;;;;;;;10.43;5.68;;;;;;;16.83;63.35;101266.19;5034422;28;20022;-77
2022/08/09 04:44:54;;;;;;;10.75;4.05;;;;;;;16.98;62.86;101271.78;5034519;28;20116;-77
2022/08/09 04:47:20;;;;;;;9.80;4.38;;;;;;;17.16;62.28;101267.69;5016438;28;20029;-78
2022/08/09 04:49:46;;;;;;;9.55;4.60;;;;;;;17.32;61.79;101262.03;5032593;28;20057;-77
2022/08/09 04:52:11;;;;;;;8.82;4.30;;;;;;;17.50;61.30;101274.47;5032941;28;20033;-77
2022/08/09 04:54:37;;;;;;;9.52;4.35;;;;;;;17.71;61.28;101276.69;5016292;28;20079;-77
2022/08/09 04:57:02;;;;;;;10.75;4.40;;;;;;;17.95;60.78;101270.47;5033034;28;20450;-78
2022/08/09 04:59:28;;;;;;;12.18;4.65;;;;;;;18.18;60.01;101274.97;5034590;28;20034;-76
2022/08/09 05:01:53;;;;;;;15.93;4.80;;;;;;;18.40;58.70;101290.84;5034466;28;20030;-76
2022/08/09 05:04:18;;;;;;;11.57;4.53;;;;;;;18.57;57.56;101280.84;5034232;28;20459;-76
2022/08/09 05:06:44;;;;;;;10.75;4.47;;;;;;;18.64;57.27;101280.34;5016272;28;20088;-76
2022/08/09 05:09:09;;;;;;;6.20;4.25;;;;;;;18.86;56.63;101282.44;5032801;28;20033;-78
2022/08/09 05:11:35;;;;;;;14.38;4.97;;;;;;;19.00;56.11;101286.38;5032681;28;20064;-76
2022/08/09 05:14:00;;;;;;;6.70;3.95;;;;;;;19.10;55.51;101279.00;5033818;28;20048;-79
2022/08/09 05:16:25;;;;;;;9.75;4.90;;;;;;;19.11;54.93;101275.56;5032722;28;20037;-82
2022/08/09 05:18:51;;;;;;;18.83;4.65;;;;;;;19.20;54.34;101283.22;5032545;28;20033;-81
2022/08/09 05:21:16;;;;;;;14.90;4.22;;;;;;;19.27;54.34;101291.34;5033862;28;20167;-80
2022/08/09 05:23:42;;;;;;;31.33;6.75;;;;;;;19.26;54.31;101294.81;5032533;28;20063;-82
2022/08/09 05:26:07;;;;;;;16.05;5.63;;;;;;;19.29;53.78;101294.53;5032450;28;20038;-86
2022/08/09 05:28:33;;;;;;;26.23;5.03;;;;;;;19.24;54.09;101294.53;5032911;28;20036;-83
2022/08/09 05:30:58;;;;;;;10.25;4.97;;;;;;;19.31;53.21;101297.69;5015622;28;20458;-77
2022/08/09 05:33:24;;;;;;;18.40;5.20;;;;;;;19.40;53.23;101290.81;5031155;28;20033;-75
2022/08/09 05:35:49;;;;;;;8.88;5.13;;;;;;;19.55;52.71;101300.00;5031868;28;20037;-75
2022/08/09 05:38:14;;;;;;;11.82;4.10;;;;;;;19.77;52.67;101304.91;5033230;28;20092;-74
2022/08/09 05:40:40;;;;;;;10.35;4.05;;;;;;;20.03;52.16;101296.66;5015237;28;20087;-75
2022/08/09 05:43:06;;;;;;;11.48;4.20;;;;;;;20.35;51.32;101291.97;5032927;28;20451;-75
2022/08/09 05:45:32;;;;;;;7.10;4.05;;;;;;;20.71;50.40;101301.50;5033728;28;20033;-76
2022/08/09 05:47:57;;;;;;;7.68;3.42;;;;;;;21.09;49.41;101298.81;5033077;28;20033;-76
2022/08/09 05:50:24;;;;;;;5.78;3.58;;;;;;;21.45;48.26;101299.50;5035732;28;20059;-76
2022/08/09 05:52:50;;;;;;;6.13;3.53;;;;;;;21.78;47.72;101304.16;5037151;28;20109;-75
2022/08/09 05:55:16;;;;;;;6.90;3.63;;;;;;;22.06;47.13;101305.38;5036782;28;20028;-76
2022/08/09 05:57:41;;;;;;;9.93;3.47;;;;;;;22.34;46.41;101302.09;5036827;28;20041;-76
2022/08/09 06:00:09;;;;;;;7.25;3.55;;;;;;;22.61;45.71;101303.00;5036730;28;20029;-76
2022/08/09 06:02:34;;;;;;;17.10;5.35;;;;;;;22.80;45.35;101309.59;5036684;28;20470;-80
2022/08/09 06:05:01;;;;;;;12.95;3.22;;;;;;;22.96;44.50;101310.69;5018908;28;20124;-77
2022/08/09 06:07:28;;;;;;;14.18;4.20;;;;;;;23.07;44.07;101321.34;5034520;28;20486;-76
2022/08/09 06:09:54;;;;;;;6.68;3.80;;;;;;;23.14;43.57;101317.78;5036817;28;20037;-76
2022/08/09 06:12:20;;;;;;;6.22;3.00;;;;;;;23.22;43.90;101315.75;5036925;28;20037;-75
2022/08/09 06:15:06;;;;;;;16.52;4.45;;;;;;;23.34;43.23;101317.94;5036964;28;20125;-75
2022/08/09 06:17:32;;;;;;;7.05;3.47;;;;;;;23.46;42.63;101324.31;5036619;28;20049;-78
2022/08/09 06:19:58;;;;;;;13.23;3.65;;;;;;;23.57;42.89;101321.22;5036247;28;20029;-78
2022/08/09 06:22:23;;;;;;;15.60;4.25;;;;;;;23.67;42.43;101316.53;5035111;28;20470;-76
2022/08/09 06:24:49;;;;;;;8.25;3.50;;;;;;;23.72;41.87;101327.28;5035405;28;20375;-78
2022/08/09 06:27:15;;;;;;;7.13;3.47;;;;;;;23.80;41.93;101318.66;5036566;28;20080;-78
2022/08/09 06:29:41;;;;;;;9.93;3.60;;;;;;;23.91;42.02;101314.69;5041036;28;20525;-77
2022/08/09 06:32:07;;;;;;;7.20;3.50;;;;;;;24.05;41.80;101319.97;5035613;28;20164;-77
2022/08/09 06:34:32;;;;;;;7.90;3.20;;;;;;;24.14;40.34;101319.53;5036077;28;20037;-78
2022/08/09 06:36:58;;;;;;;12.45;3.53;;;;;;;24.19;40.35;101320.75;5034687;28;20037;-76
2022/08/09 06:39:23;;;;;;;6.22;3.22;;;;;;;24.15;40.37;101323.19;5035057;28;20018;-75
2022/08/09 06:41:48;;;;;;;11.55;3.60;;;;;;;24.23;40.87;101329.19;5034703;28;20449;-75
2022/08/09 06:44:14;;;;;;;11.02;3.67;;;;;;;24.42;40.79;101333.53;5034902;28;20036;-76
2022/08/09 06:46:40;;;;;;;8.70;3.65;;;;;;;24.62;40.34;101332.78;5034698;28;20017;-75
2022/08/09 06:49:05;;;;;;;4.35;3.05;;;;;;;24.82;39.64;101345.06;5034317;28;20037;-74
2022/08/09 06:51:32;;;;;;;11.00;3.15;;;;;;;24.89;38.68;101341.47;5034496;28;20082;-75
2022/08/09 06:53:57;;;;;;;10.55;3.67;;;;;;;24.85;38.34;101341.78;5035576;28;20028;-74
2022/08/09 06:56:23;;;;;;;6.97;2.40;;;;;;;24.85;38.78;101341.00;5034707;28;20025;-74
2022/08/09 06:58:48;;;;;;;5.47;2.60;;;;;;;24.86;38.81;101349.25;5034548;28;20355;-75
2022/08/09 07:01:14;;;;;;;6.10;2.40;;;;;;;24.86;39.30;101349.25;5035618;28;20017;-76
2022/08/09 07:03:39;;;;;;;7.22;3.03;;;;;;;24.87;38.82;101350.81;5017780;28;20486;-74
2022/08/09 07:06:05;;;;;;;5.20;2.65;;;;;;;24.88;38.18;101352.41;5034545;28;20056;-78
2022/08/09 07:08:32;;;;;;;4.63;2.70;;;;;;;24.80;38.68;101357.31;5034349;28;20079;-75
2022/08/09 07:10:57;;;;;;;8.15;2.83;;;;;;;24.76;39.19;101350.25;5035029;28;20071;-77
2022/08/09 07:13:22;;;;;;;6.32;2.42;;;;;;;24.77;38.41;101354.75;5018054;28;20482;-78
2022/08/09 07:15:48;;;;;;;6.45;2.50;;;;;;;24.63;38.23;101354.81;5035586;28;20375;-77
2022/08/09 07:18:13;;;;;;;6.30;2.67;;;;;;;24.59;38.77;101360.22;5035683;28;20053;-78
2022/08/09 07:20:38;;;;;;;9.00;3.20;;;;;;;24.62;38.98;101364.16;5034555;28;20018;-78
2022/08/09 07:23:04;;;;;;;4.60;3.25;;;;;;;24.65;38.90;101369.63;5035130;28;20029;-77
2022/08/09 07:25:29;;;;;;;5.38;2.75;;;;;;;24.61;38.81;101375.06;5037129;28;20036;-80
2022/08/09 07:27:55;;;;;;;6.40;2.42;;;;;;;24.60;38.33;101373.47;5038090;28;20025;-78
2022/08/09 07:30:20;;;;;;;4.18;2.20;;;;;;;24.51;38.86;101376.09;5021031;28;20037;-78
2022/08/09 07:32:46;;;;;;;7.28;3.05;;;;;;;24.56;39.19;101378.09;5038103;28;20029;-78
2022/08/09 07:35:12;;;;;;;11.13;3.55;;;;;;;24.63;38.97;101378.22;5036966;28;20029;-78
2022/08/09 07:37:42;;;;;;;10.57;3.95;;;;;;;24.72;38.71;101376.16;5039400;28;20031;-79
2022/08/09 07:40:08;;;;;;;6.57;2.60;;;;;;;24.80;38.80;101379.94;5037544;28;20108;-73
2022/08/09 07:42:34;;;;;;;11.05;2.63;;;;;;;24.91;38.29;101383.41;5034561;28;20482;-73
2022/08/09 07:44:59;;;;;;;6.28;2.47;;;;;;;25.04;38.40;101380.41;5032019;28;20021;-74
2022/08/09 07:47:25;;;;;;;6.85;2.60;;;;;;;25.20;38.31;101384.28;5033120;28;20021;-72
2022/08/09 07:49:50;;;;;;;8.88;3.60;;;;;;;25.35;37.90;101377.78;5032325;28;20152;-74
2022/08/09 07:52:16;;;;;;;17.92;3.35;;;;;;;25.57;37.54;101379.38;5034627;28;20029;-74
2022/08/09 07:54:41;;;;;;;14.57;3.92;;;;;;;25.74;37.35;101383.41;4999772;28;20063;-73
2022/08/09 07:57:07;;;;;;;13.90;3.28;;;;;;;25.93;37.11;101381.00;5014766;28;20501;-74
2022/08/09 07:59:33;;;;;;;7.22;3.22;;;;;;;26.16;36.97;101383.31;5032602;28;20057;-74
2022/08/09 08:01:58;;;;;;;6.88;2.75;;;;;;;26.38;35.78;101387.72;5031161;28;20018;-74
2022/08/09 08:04:23;;;;;;;6.03;2.42;;;;;;;26.58;36.32;101389.75;5032321;28;20537;-74
2022/08/09 08:06:49;;;;;;;4.80;2.17;;;;;;;26.86;35.09;101386.75;5032205;28;20025;-73
2022/08/09 08:09:16;;;;;;;6.10;2.72;;;;;;;27.11;34.71;101387.78;5030919;28;20025;-75
2022/08/09 08:11:42;;;;;;;5.75;2.40;;;;;;;27.42;34.53;101393.69;5031959;28;20018;-75
2022/08/09 08:14:07;;;;;;;6.65;2.58;;;;;;;27.68;34.28;101390.38;5030967;28;20481;-75
2022/08/09 08:16:33;;;;;;;3.70;2.30;;;;;;;27.93;33.86;101394.31;5031288;28;20022;-73
2022/08/09 08:18:59;;;;;;;4.15;2.30;;;;;;;28.27;33.17;101395.97;5033181;28;20071;-73
2022/08/09 08:21:24;;;;;;;7.65;2.10;;;;;;;28.60;32.73;101402.72;5034062;28;20079;-74
2022/08/09 08:23:50;;;;;;;7.90;2.53;;;;;;;28.89;32.45;101398.06;5034580;28;20021;-74
2022/08/09 08:26:15;;;;;;;25.88;3.05;;;;;;;29.04;31.40;101397.22;5034334;28;20060;-73
2022/08/09 08:28:41;;;;;;;7.95;3.20;;;;;;;29.12;31.41;101400.91;5034257;28;20459;-74
2022/08/09 08:31:06;;;;;;;3.58;2.75;;;;;;;29.40;31.11;101399.72;5032885;28;20025;-73
2022/08/09 08:33:31;;;;;;;8.60;2.53;;;;;;;29.62;30.56;101390.75;5016354;28;20025;-74
2022/08/09 08:35:57;;;;;;;9.82;2.28;;;;;;;29.99;30.39;101399.78;5016051;28;20108;-74
2022/08/09 08:38:22;;;;;;;3.40;2.17;;;;;;;30.47;29.92;101394.34;5032782;28;20427;-74
2022/08/09 08:40:48;;;;;;;7.10;2.42;;;;;;;31.08;29.47;101400.25;5032650;28;20021;-74
2022/08/09 08:43:14;;;;;;;13.38;3.25;;;;;;;31.30;28.07;101410.19;5032463;28;20425;-72
2022/08/09 08:46:02;;;;;;;4.68;1.98;;;;;;;31.55;28.04;101412.94;5016140;28;20022;-73
2022/08/09 08:48:27;;;;;;;7.20;2.45;;;;;;;31.83;28.31;101407.13;5032108;28;20517;-74
2022/08/09 08:50:52;;;;;;;15.32;2.67;;;;;;;32.28;27.65;101407.69;5032395;28;20021;-74
2022/08/09 08:53:18;;;;;;;16.88;3.65;;;;;;;32.73;28.04;101417.06;5016088;28;20427;-74
2022/08/09 08:55:43;;;;;;;4.28;1.80;;;;;;;33.05;26.45;101411.38;5033920;28;20073;-74
2022/08/09 08:58:10;;;;;;;6.15;1.80;;;;;;;33.20;25.82;101419.16;5033884;28;20025;-73
2022/08/09 09:00:35;;;;;;;4.25;2.03;;;;;;;33.15;25.83;101423.19;5033735;28;20469;-74
2022/08/09 09:03:02;;;;;;;7.53;1.80;;;;;;;33.14;26.28;101421.63;5032441;28;20029;-73
2022/08/09 09:05:28;;;;;;;9.65;3.78;;;;;;;33.26;25.92;101415.84;5033782;28;20026;-74
2022/08/09 09:07:54;;;;;;;5.53;2.40;;;;;;;33.34;25.81;101414.25;5032523;28;20053;-72
2022/08/09 09:10:20;;;;;;;6.85;1.98;;;;;;;33.41;25.86;101413.31;5032287;28;20107;-73
2022/08/09 09:12:45;;;;;;;8.93;1.75;;;;;;;33.48;25.90;101402.66;5032574;28;20064;-73
2022/08/09 09:15:11;;;;;;;3.10;1.65;;;;;;;33.61;25.21;101414.00;5032660;28;20025;-75
2022/08/09 09:17:36;;;;;;;4.03;1.48;;;;;;;33.66;25.28;101415.09;5032147;28;20056;-74
2022/08/09 09:20:06;;;;;;;3.40;1.77;;;;;;;33.68;25.12;101410.06;5015916;28;20036;-74
2022/08/09 09:22:48;;;;;;;9.60;2.20;;;;;;;33.65;25.72;101414.28;5015728;28;20148;-74
2022/08/09 09:25:29;;;;;;;5.45;1.52;;;;;;;33.80;25.54;101413.91;5036316;28;20099;-73
2022/08/09 09:27:55;;;;;;;7.82;1.80;;;;;;;33.94;25.89;101414.13;5036063;28;20032;-73
2022/08/09 09:30:21;;;;;;;7.13;1.67;;;;;;;34.15;25.35;101416.38;5036381;28;20025;-74
2022/08/09 09:33:09;;;;;;;8.38;3.38;;;;;;;34.25;25.19;101406.00;5036376;28;20017;-74
2022/08/09 09:35:50;;;;;;;6.97;1.60;;;;;;;34.58;25.27;101408.19;5036404;28;20449;-74
2022/08/09 09:38:16;;;;;;;2.30;1.30;;;;;;;34.88;24.03;101412.47;5036038;28;20041;-74
2022/08/09 09:40:44;;;;;;;2.10;1.45;;;;;;;35.11;23.36;101419.25;5036000;28;20021;-74
2022/08/09 09:43:17;;;;;;;3.38;1.20;;;;;;;35.07;23.11;101416.03;5036403;28;20067;-74
2022/08/09 09:45:52;;;;;;;8.07;2.20;;;;;;;34.90;23.37;101413.41;5037453;28;20072;-73
2022/08/09 09:48:19;;;;;;;1.92;1.38;;;;;;;34.51;23.40;101418.88;5036993;28;20136;-74
2022/08/09 09:50:46;;;;;;;6.30;1.67;;;;;;;34.42;24.10;101416.78;5036914;28;20022;-73
2022/08/09 09:53:18;;;;;;;5.10;1.40;;;;;;;34.25;23.50;101411.16;5035811;28;20021;-72
2022/08/09 09:55:52;;;;;;;10.35;2.20;;;;;;;33.98;23.59;101413.63;5036021;28;20499;-73
2022/08/09 09:58:18;;;;;;;2.78;1.55;;;;;;;33.76;23.64;101415.81;5037031;28;20021;-73
2022/08/09 10:00:48;;;;;;;3.08;1.20;;;;;;;33.47;23.75;101410.00;5035630;28;20040;-74
2022/08/09 10:03:14;;;;;;;2.28;0.98;;;;;;;33.50;23.47;101399.84;5036810;28;20056;-72
2022/08/09 10:05:59;;;;;;;6.03;1.33;;;;;;;33.61;23.21;101404.31;5036652;28;20056;-73
2022/08/09 10:08:24;;;;;;;3.60;1.85;;;;;;;33.41;23.76;101401.44;5036598;28;20359;-74
2022/08/09 10:10:50;;;;;;;7.28;2.95;;;;;;;33.19;23.71;101404.94;5035633;28;20101;-74
2022/08/09 10:13:16;;;;;;;8.00;1.48;;;;;;;32.90;24.01;101399.88;5018834;28;20466;-73
2022/08/09 10:15:49;;;;;;;2.13;1.17;;;;;;;32.52;23.52;101402.84;5035080;28;20059;-73
2022/08/09 10:18:15;;;;;;;2.13;1.08;;;;;;;32.15;25.02;101400.00;5018867;28;20116;-74
2022/08/09 10:20:40;;;;;;;2.83;1.50;;;;;;;31.92;25.62;101393.75;5035337;28;20053;-73
2022/08/09 10:23:17;;;;;;;2.97;1.30;;;;;;;31.76;25.74;101387.34;5035470;28;20021;-74
2022/08/09 10:25:44;;;;;;;4.57;1.65;;;;;;;31.68;26.39;101383.75;5036435;28;20466;-74
2022/08/09 10:28:10;;;;;;;5.22;1.48;;;;;;;31.60;25.76;101386.00;5035240;28;20466;-73
2022/08/09 10:30:35;;;;;;;1.55;1.17;;;;;;;31.37;25.22;101385.63;5034908;28;20391;-72
2022/08/09 10:33:01;;;;;;;2.80;1.23;;;;;;;31.04;26.02;101385.16;5035325;28;20014;-73
2022/08/09 10:35:26;;;;;;;2.53;1.17;;;;;;;30.67;25.76;101378.38;5034619;28;20052;-74
2022/08/09 10:37:52;;;;;;;7.15;3.25;;;;;;;30.28;26.26;101380.22;5018425;28;20036;-73
2022/08/09 10:40:18;;;;;;;2.40;1.33;;;;;;;29.86;26.98;101367.72;5035105;28;20025;-74
2022/08/09 10:42:43;;;;;;;4.43;1.48;;;;;;;29.57;27.53;101376.25;5034976;28;20013;-74
2022/08/09 10:45:10;;;;;;;7.43;1.77;;;;;;;29.40;28.63;101371.03;5034786;28;20037;-73
2022/08/09 10:47:38;;;;;;;9.18;2.10;;;;;;;29.23;28.57;101368.06;5034736;28;20366;-73
2022/08/09 10:50:04;;;;;;;3.22;1.80;;;;;;;29.16;28.69;101363.78;5034505;28;20053;-73
2022/08/09 10:52:58;;;;;;;1.55;1.13;;;;;;;29.03;28.03;101363.28;5035974;28;20032;-74
2022/08/09 10:55:25;;;;;;;8.68;2.45;;;;;;;28.84;28.24;101361.59;5035688;28;20033;-74
2022/08/09 10:57:52;;;;;;;7.28;2.05;;;;;;;28.66;28.88;101362.88;5034721;28;20036;-73
2022/08/09 11:00:30;;;;;;;4.45;1.70;;;;;;;28.59;28.51;101366.63;5034652;28;20061;-73
2022/08/09 11:02:56;;;;;;;4.85;1.50;;;;;;;28.35;28.73;101364.38;5036240;28;20157;-74
2022/08/09 11:05:22;;;;;;;7.30;1.73;;;;;;;28.13;29.05;101365.25;5034677;28;20116;-72
2022/08/09 11:07:48;;;;;;;2.38;1.20;;;;;;;27.94;28.76;101357.66;5034541;28;20068;-74
2022/08/09 11:10:15;;;;;;;3.90;1.60;;;;;;;27.73;29.15;101362.97;5035712;28;20033;-73
2022/08/09 11:12:40;;;;;;;2.05;1.50;;;;;;;27.64;29.29;101360.63;5034395;28;20382;-74
2022/08/09 11:15:06;;;;;;;1.50;1.40;;;;;;;27.57;29.20;101349.66;5035652;28;20033;-73
2022/08/09 11:17:31;;;;;;;2.00;1.23;;;;;;;27.47;29.40;101355.34;5035820;28;20075;-74
2022/08/09 11:20:08;;;;;;;6.65;1.38;;;;;;;27.36;30.56;101343.97;5035643;28;20492;-73
2022/08/09 11:22:40;;;;;;;7.15;1.75;;;;;;;27.34;30.81;101340.09;5035435;28;20026;-74
2022/08/09 11:25:16;;;;;;;4.38;1.55;;;;;;;27.32;30.34;101352.41;5036054;28;20030;-73